Time;durP1;ratioP1;P1;durP2;ratioP2;P2;SDS_P1;SDS_P2;PMS_P1;PMS_P2;Temp;Humidity;BMP_temperature;BMP_pressure;BME280_temperature;BME280_humidity;BME280_pressure;Samples;Min_cycle;Max_cycle;Signal;HPM_P1;HPM_P2
2020/12/21 00:00:22;;;;;;;47.48;22.22;;;;;;;4.26;70.58;102247.00;1778485;79;21218;-57
2020/12/21 00:02:51;;;;;;;39.42;20.88;;;;;;;4.24;70.58;102251.86;1774534;79;21164;-57
2020/12/21 00:05:18;;;;;;;39.25;19.73;;;;;;;4.23;70.66;102258.80;1781749;79;21631;-57
2020/12/21 00:07:48;;;;;;;38.58;20.32;;;;;;;4.31;70.43;102260.39;1771274;79;21188;-57
2020/12/21 00:10:16;;;;;;;38.48;19.27;;;;;;;4.41;70.12;102261.42;1804209;78;21202;-57
2020/12/21 00:12:48;;;;;;;41.88;21.27;;;;;;;4.47;70.02;102256.50;1812766;78;21160;-57
2020/12/21 00:15:14;;;;;;;47.00;20.57;;;;;;;4.50;70.01;102257.73;1817112;77;21160;-57
2020/12/21 00:17:42;;;;;;;64.35;22.25;;;;;;;4.52;69.98;102260.30;1812721;78;21375;-57
2020/12/21 00:20:10;;;;;;;45.30;22.42;;;;;;;4.51;69.98;102262.06;1817164;77;20946;-56
2020/12/21 00:22:39;;;;;;;52.65;24.98;;;;;;;4.50;69.94;102262.09;1787487;78;21148;-56
2020/12/21 00:25:07;;;;;;;45.25;21.30;;;;;;;4.45;69.98;102264.81;1813021;78;21675;-57
2020/12/21 00:27:34;;;;;;;39.48;21.75;;;;;;;4.40;70.05;102261.45;1791094;78;21734;-56
2020/12/21 00:30:04;;;;;;;49.35;22.07;;;;;;;4.33;70.10;102262.05;1814871;78;21330;-56
2020/12/21 00:32:34;;;;;;;35.33;18.82;;;;;;;4.25;70.21;102263.55;1817823;78;21196;-57
2020/12/21 00:35:02;;;;;;;35.55;19.70;;;;;;;4.27;70.27;102268.28;1808130;78;21195;-56
2020/12/21 00:37:29;;;;;;;56.85;22.62;;;;;;;4.38;70.11;102270.62;1799024;78;21113;-57
2020/12/21 00:39:57;;;;;;;51.75;24.27;;;;;;;4.43;70.05;102268.75;1786510;78;21191;-57
2020/12/21 00:42:24;;;;;;;50.78;24.00;;;;;;;4.49;70.00;102266.47;1780645;78;22105;-57
2020/12/21 00:44:53;;;;;;;46.37;24.20;;;;;;;4.51;70.03;102270.34;1819143;77;21191;-58
2020/12/21 00:47:20;;;;;;;43.60;21.85;;;;;;;4.52;70.02;102266.36;1814137;77;21136;-57
2020/12/21 00:49:49;;;;;;;51.83;24.30;;;;;;;4.53;70.01;102262.88;1797179;78;21182;-57
2020/12/21 00:52:17;;;;;;;45.52;21.87;;;;;;;4.53;69.84;102256.81;1795113;78;22269;-57
2020/12/21 00:54:46;;;;;;;46.25;19.80;;;;;;;4.46;69.89;102255.66;1781171;78;21247;-57
2020/12/21 00:57:14;;;;;;;37.23;18.75;;;;;;;4.40;70.02;102250.58;1808032;78;21226;-57
2020/12/21 00:59:42;;;;;;;35.88;19.60;;;;;;;4.39;69.98;102251.95;1772942;78;21568;-57
2020/12/21 01:02:10;;;;;;;36.55;19.10;;;;;;;4.46;69.90;102253.50;1808721;78;21201;-57
2020/12/21 01:04:38;;;;;;;41.33;21.05;;;;;;;4.52;69.83;102252.48;1790866;78;21152;-57
2020/12/21 01:07:06;;;;;;;45.30;20.97;;;;;;;4.57;69.72;102251.50;1810581;78;21342;-56
2020/12/21 01:09:35;;;;;;;47.55;22.80;;;;;;;4.59;69.75;102254.91;1801323;78;21319;-56
2020/12/21 01:12:03;;;;;;;47.50;20.35;;;;;;;4.59;69.79;102256.22;1787968;78;21139;-57
2020/12/21 01:14:30;;;;;;;46.98;20.90;;;;;;;4.55;69.80;102250.65;1815869;78;21846;-56
2020/12/21 01:16:59;;;;;;;40.38;19.60;;;;;;;4.54;69.84;102256.78;1818436;78;21208;-61
2020/12/21 01:19:28;;;;;;;45.55;21.50;;;;;;;4.51;69.75;102249.03;1795970;78;21194;-57
2020/12/21 01:21:57;;;;;;;44.03;19.65;;;;;;;4.45;69.75;102244.84;1797338;78;22005;-57
2020/12/21 01:24:25;;;;;;;45.23;19.70;;;;;;;4.42;69.74;102239.69;1818522;78;21614;-57
2020/12/21 01:26:53;;;;;;;47.10;20.30;;;;;;;4.42;69.63;102239.69;1816532;78;21173;-57
2020/12/21 01:29:21;;;;;;;36.73;18.07;;;;;;;4.49;69.50;102245.61;1816486;77;21172;-57
2020/12/21 01:31:48;;;;;;;36.03;16.97;;;;;;;4.54;69.43;102245.05;1816796;77;22347;-57
2020/12/21 01:34:17;;;;;;;32.33;17.23;;;;;;;4.57;69.41;102241.06;1817899;78;21686;-57
2020/12/21 01:36:45;;;;;;;44.83;18.73;;;;;;;4.56;69.45;102243.25;1796233;78;21163;-58
2020/12/21 01:39:13;;;;;;;37.23;17.65;;;;;;;4.55;69.50;102232.86;1816783;78;21486;-57
2020/12/21 01:41:42;;;;;;;42.10;18.30;;;;;;;4.52;69.48;102240.30;1799530;77;21192;-57
2020/12/21 01:44:09;;;;;;;34.30;15.68;;;;;;;4.49;69.51;102244.31;1802852;78;22262;-57
2020/12/21 01:46:36;;;;;;;35.23;16.05;;;;;;;4.43;69.58;102241.39;1815304;77;21122;-57
2020/12/21 01:49:05;;;;;;;30.72;14.70;;;;;;;4.41;69.60;102241.88;1786792;79;21154;-57
2020/12/21 01:51:33;;;;;;;24.25;14.70;;;;;;;4.38;69.60;102247.16;1819854;78;21184;-57
2020/12/21 01:54:03;;;;;;;29.30;14.78;;;;;;;4.40;69.56;102247.13;1783128;78;21197;-57
2020/12/21 01:56:30;;;;;;;21.70;11.88;;;;;;;4.48;69.38;102243.89;1805060;78;22080;-57
2020/12/21 01:58:59;;;;;;;26.45;12.90;;;;;;;4.53;69.28;102249.84;1782410;78;21643;-57
2020/12/21 02:01:27;;;;;;;25.95;12.80;;;;;;;4.56;69.23;102248.47;1793971;78;21211;-57
2020/12/21 02:03:54;;;;;;;22.00;12.00;;;;;;;4.54;69.14;102242.44;1787469;79;21518;-57
2020/12/21 02:06:22;;;;;;;24.95;13.05;;;;;;;4.50;69.27;102243.84;1806071;77;21152;-58
2020/12/21 02:08:50;;;;;;;22.13;11.25;;;;;;;4.49;69.27;102243.43;1814015;78;21903;-57
2020/12/21 02:11:18;;;;;;;25.25;11.12;;;;;;;4.45;69.27;102241.34;1790703;78;21240;-57
2020/12/21 02:13:45;;;;;;;19.90;10.75;;;;;;;4.42;69.27;102245.33;1805163;77;21112;-57
2020/12/21 02:16:15;;;;;;;17.90;9.65;;;;;;;4.39;69.26;102240.22;1812567;77;21180;-56
2020/12/21 02:18:43;;;;;;;18.37;9.60;;;;;;;4.36;69.29;102247.66;1814036;78;21167;-57
2020/12/21 02:21:11;;;;;;;15.65;7.87;;;;;;;4.38;69.29;102238.03;1786891;78;21194;-56
2020/12/21 02:23:38;;;;;;;15.18;8.38;;;;;;;4.50;69.05;102231.66;1785784;78;21577;-56
2020/12/21 02:26:06;;;;;;;17.42;9.23;;;;;;;4.58;68.82;102233.63;1793637;78;21227;-56
2020/12/21 02:28:34;;;;;;;18.98;9.28;;;;;;;4.61;68.75;102228.80;1811174;77;21183;-57
2020/12/21 02:31:02;;;;;;;18.77;10.03;;;;;;;4.60;68.77;102233.59;1818047;77;21196;-56
2020/12/21 02:33:29;;;;;;;19.30;9.45;;;;;;;4.56;68.86;102231.52;1810318;77;23569;-57
2020/12/21 02:35:57;;;;;;;19.62;9.68;;;;;;;4.54;68.82;102235.92;1795303;78;21220;-57
2020/12/21 02:38:24;;;;;;;19.52;10.25;;;;;;;4.53;68.78;102235.50;1769090;79;21130;-57
2020/12/21 02:40:52;;;;;;;17.45;9.05;;;;;;;4.49;68.82;102236.91;1785908;79;21179;-58
2020/12/21 02:43:20;;;;;;;20.25;10.08;;;;;;;4.45;68.88;102236.14;1812878;78;21128;-57
2020/12/21 02:45:48;;;;;;;19.52;10.45;;;;;;;4.40;68.89;102234.09;1812573;78;21193;-56
2020/12/21 02:48:16;;;;;;;19.07;9.63;;;;;;;4.38;68.87;102232.83;1803593;78;21184;-57
2020/12/21 02:50:45;;;;;;;18.62;10.93;;;;;;;4.46;68.74;102241.31;1801016;78;21119;-57
2020/12/21 02:53:14;;;;;;;20.12;9.80;;;;;;;4.50;68.68;102240.78;1801062;78;21150;-57
2020/12/21 02:55:45;;;;;;;22.25;10.23;;;;;;;4.54;68.63;102247.66;1816711;78;21770;-58
2020/12/21 02:58:13;;;;;;;17.60;9.85;;;;;;;4.53;68.72;102239.87;1809303;77;21586;-57
2020/12/21 03:00:42;;;;;;;23.92;11.30;;;;;;;4.51;68.69;102245.12;1785800;78;21215;-57
2020/12/21 03:03:12;;;;;;;20.85;9.98;;;;;;;4.45;68.66;102244.84;1814008;78;21157;-57
2020/12/21 03:05:40;;;;;;;19.40;10.35;;;;;;;4.40;68.77;102245.82;1804145;78;21164;-57
2020/12/21 03:08:09;;;;;;;20.25;10.80;;;;;;;4.34;68.84;102253.35;1794468;78;21579;-57
2020/12/21 03:10:38;;;;;;;21.68;10.23;;;;;;;4.27;68.96;102250.03;1794933;78;21444;-57
2020/12/21 03:13:06;;;;;;;21.27;10.45;;;;;;;4.24;69.06;102250.10;1786911;78;21184;-56
2020/12/21 03:15:34;;;;;;;18.45;10.00;;;;;;;4.26;68.95;102252.67;1815985;78;21596;-56
2020/12/21 03:18:02;;;;;;;19.07;10.10;;;;;;;4.31;68.84;102251.27;1766868;79;21188;-57
2020/12/21 03:20:30;;;;;;;23.60;10.65;;;;;;;4.32;68.74;102253.84;1771635;79;21201;-57
2020/12/21 03:22:57;;;;;;;17.25;9.45;;;;;;;4.32;68.83;102250.36;1801644;78;22672;-57
2020/12/21 03:25:25;;;;;;;19.40;9.95;;;;;;;4.27;68.87;102255.70;1774902;80;21124;-57
2020/12/21 03:27:52;;;;;;;20.40;10.93;;;;;;;4.18;68.97;102255.45;1795144;78;21160;-57
2020/12/21 03:30:20;;;;;;;20.60;10.63;;;;;;;4.11;69.14;102260.86;1811534;77;21161;-57
2020/12/21 03:32:49;;;;;;;18.65;9.65;;;;;;;4.02;69.31;102258.87;1766070;80;21159;-57
2020/12/21 03:35:18;;;;;;;20.10;10.43;;;;;;;3.92;69.57;102261.27;1817649;77;21283;-57
2020/12/21 03:37:46;;;;;;;20.60;10.00;;;;;;;3.83;69.79;102254.94;1787673;78;21167;-57
2020/12/21 03:40:14;;;;;;;24.10;11.20;;;;;;;3.75;69.96;102252.52;1816152;77;21574;-57
2020/12/21 03:42:43;;;;;;;14.28;9.10;;;;;;;3.73;70.03;102254.28;1787618;79;21170;-57
2020/12/21 03:45:12;;;;;;;18.27;9.95;;;;;;;3.78;69.96;102255.48;1787083;78;21172;-58
2020/12/21 03:47:42;;;;;;;19.10;10.28;;;;;;;3.84;69.97;102256.22;1774753;78;21164;-58
2020/12/21 03:50:11;;;;;;;16.07;10.10;;;;;;;3.94;69.85;102259.48;1770895;80;21194;-56
2020/12/21 03:52:39;;;;;;;15.60;8.95;;;;;;;4.00;69.84;102265.86;1779511;79;21135;-56
2020/12/21 03:55:08;;;;;;;14.58;7.75;;;;;;;4.03;69.88;102263.16;1788082;80;21169;-56
2020/12/21 03:57:35;;;;;;;18.30;9.90;;;;;;;4.06;69.83;102259.65;1772913;78;21124;-56
2020/12/21 04:00:06;;;;;;;15.60;9.08;;;;;;;4.04;69.82;102255.77;1777089;79;21587;-56
2020/12/21 04:02:37;;;;;;;19.20;9.28;;;;;;;4.05;69.83;102257.92;1782701;78;21199;-57
2020/12/21 04:05:05;;;;;;;19.00;10.43;;;;;;;4.06;69.77;102261.80;1804978;77;21179;-57
2020/12/21 04:07:36;;;;;;;14.78;8.18;;;;;;;4.04;69.79;102260.14;1811155;77;22750;-57
2020/12/21 04:10:05;;;;;;;13.55;7.80;;;;;;;4.02;69.76;102261.47;1757772;78;21497;-57
2020/12/21 04:12:34;;;;;;;16.07;9.13;;;;;;;4.05;69.68;102265.31;1802062;78;21198;-57
2020/12/21 04:15:04;;;;;;;15.68;7.58;;;;;;;4.15;69.48;102262.03;1738690;80;21667;-58
2020/12/21 04:17:32;;;;;;;14.83;8.05;;;;;;;4.21;69.31;102263.66;1764753;79;21199;-55
2020/12/21 04:20:00;;;;;;;15.80;7.83;;;;;;;4.24;69.26;102261.83;1768505;80;21159;-55
2020/12/21 04:22:27;;;;;;;18.77;8.35;;;;;;;4.23;69.34;102261.41;1766959;79;21724;-55
2020/12/21 04:24:55;;;;;;;16.62;8.55;;;;;;;4.23;69.33;102261.41;1754097;81;23382;-56
2020/12/21 04:27:22;;;;;;;17.30;8.10;;;;;;;4.22;69.30;102259.71;1766139;79;21532;-54
2020/12/21 04:29:51;;;;;;;11.88;6.90;;;;;;;4.18;69.34;102255.45;1767486;80;21171;-55
2020/12/21 04:32:20;;;;;;;12.85;7.00;;;;;;;4.15;69.37;102252.91;1738461;81;22002;-57
2020/12/21 04:34:51;;;;;;;18.48;8.93;;;;;;;4.13;69.45;102252.09;1762299;79;21177;-54
2020/12/21 04:37:18;;;;;;;13.83;6.25;;;;;;;4.09;69.53;102255.67;1735184;81;22380;-55
2020/12/21 04:39:46;;;;;;;12.35;7.15;;;;;;;4.13;69.49;102250.80;1768960;80;21143;-55
2020/12/21 04:42:13;;;;;;;12.47;7.22;;;;;;;4.30;68.81;102245.18;1737939;81;21877;-55
2020/12/21 04:44:42;;;;;;;12.25;6.55;;;;;;;4.30;68.81;102245.18;1761323;79;21271;-55
2020/12/21 04:47:10;;;;;;;13.90;7.55;;;;;;;4.34;69.11;102244.66;1726469;81;21717;-56
2020/12/21 04:49:37;;;;;;;14.45;7.65;;;;;;;4.33;69.14;102249.48;1768794;81;21205;-56
2020/12/21 04:52:06;;;;;;;14.25;7.35;;;;;;;4.31;69.20;102248.20;1768804;81;21194;-56
2020/12/21 04:54:33;;;;;;;16.48;8.18;;;;;;;4.27;69.21;102250.03;1736315;81;21639;-56
2020/12/21 04:57:01;;;;;;;13.40;6.87;;;;;;;4.24;69.31;102251.41;1765016;79;21176;-56
2020/12/21 04:59:29;;;;;;;14.60;6.78;;;;;;;4.22;69.36;102246.69;1765280;81;21211;-55
2020/12/21 05:01:57;;;;;;;13.62;7.58;;;;;;;4.18;69.41;102247.63;1761121;79;21219;-56
2020/12/21 05:04:27;;;;;;;15.18;7.75;;;;;;;4.15;69.47;102246.39;1730076;80;21230;-56
2020/12/21 05:06:56;;;;;;;14.45;7.67;;;;;;;4.20;69.38;102246.30;1759671;79;21481;-55
2020/12/21 05:09:24;;;;;;;13.43;7.10;;;;;;;4.30;69.15;102246.94;1749361;79;21238;-56
2020/12/21 05:12:07;;;;;;;14.18;7.03;;;;;;;4.35;69.03;102242.47;1764725;80;21127;-56
2020/12/21 05:14:37;;;;;;;14.00;7.17;;;;;;;4.36;69.01;102245.05;1777246;79;21209;-56
2020/12/21 05:17:16;;;;;;;15.20;7.72;;;;;;;4.34;69.07;102250.75;1763119;79;21629;-57
2020/12/21 05:19:44;;;;;;;17.27;9.10;;;;;;;4.31;69.08;102247.36;1761929;79;21135;-56
2020/12/21 05:22:14;;;;;;;14.90;7.80;;;;;;;4.27;69.20;102246.58;1765118;79;21628;-57
2020/12/21 05:24:43;;;;;;;17.12;8.33;;;;;;;4.25;69.24;102257.47;1759282;80;21195;-56
2020/12/21 05:27:13;;;;;;;14.55;8.08;;;;;;;4.20;69.33;102248.90;1791071;78;22647;-57
2020/12/21 05:29:51;;;;;;;16.40;7.95;;;;;;;4.16;69.42;102252.48;1782726;78;21184;-57
2020/12/21 05:32:19;;;;;;;16.07;7.25;;;;;;;4.11;69.48;102250.44;1744254;81;21183;-58
2020/12/21 05:34:47;;;;;;;13.38;6.72;;;;;;;4.13;69.52;102256.00;1767068;79;22128;-57
2020/12/21 05:37:20;;;;;;;17.73;9.63;;;;;;;4.22;69.41;102250.59;1762491;80;21172;-58
2020/12/21 05:39:56;;;;;;;16.52;8.23;;;;;;;4.30;69.25;102252.15;1780297;78;21575;-58
2020/12/21 05:42:24;;;;;;;16.17;8.47;;;;;;;4.32;69.25;102258.17;1776413;78;21553;-61
2020/12/21 05:45:01;;;;;;;16.02;8.60;;;;;;;4.29;69.42;102256.52;1775327;78;21164;-58
2020/12/21 05:47:30;;;;;;;16.73;8.75;;;;;;;4.28;69.47;102254.34;1768584;78;21549;-54
2020/12/21 05:50:04;;;;;;;19.20;8.95;;;;;;;4.27;69.46;102259.16;1772785;78;21215;-57
2020/12/21 05:52:38;;;;;;;20.85;9.95;;;;;;;4.27;69.46;102262.22;1757249;80;22333;-56
2020/12/21 05:55:10;;;;;;;19.92;9.10;;;;;;;4.22;69.53;102264.92;1788057;78;21214;-58
2020/12/21 05:57:39;;;;;;;12.70;7.35;;;;;;;4.18;69.60;102266.33;1775638;78;21203;-58
2020/12/21 06:00:10;;;;;;;16.07;8.33;;;;;;;4.20;69.56;102269.32;1783312;78;21133;-56
2020/12/21 06:02:40;;;;;;;13.80;7.42;;;;;;;4.28;69.35;102265.22;1758090;80;21186;-57
2020/12/21 06:05:10;;;;;;;14.78;7.00;;;;;;;4.36;69.19;102266.34;1788125;78;21326;-56
2020/12/21 06:07:39;;;;;;;13.15;6.85;;;;;;;4.43;69.10;102266.60;1773049;79;21162;-56
2020/12/21 06:10:07;;;;;;;16.93;7.67;;;;;;;4.43;69.07;102269.21;1754747;80;21155;-55
2020/12/21 06:12:48;;;;;;;16.00;7.03;;;;;;;4.43;69.01;102267.91;1789519;78;21658;-56
2020/12/21 06:15:22;;;;;;;12.80;6.15;;;;;;;4.40;69.00;102272.73;1794168;78;21156;-55
2020/12/21 06:17:50;;;;;;;12.50;6.33;;;;;;;4.32;69.01;102271.20;1785894;78;21400;-56
2020/12/21 06:20:19;;;;;;;12.88;6.15;;;;;;;4.24;69.11;102274.86;1811572;78;22225;-56
2020/12/21 06:22:47;;;;;;;10.93;6.15;;;;;;;4.19;69.19;102284.98;1794125;78;21195;-56
2020/12/21 06:25:22;;;;;;;10.43;5.78;;;;;;;4.15;69.26;102284.63;1793247;78;21206;-56
2020/12/21 06:27:51;;;;;;;13.58;6.15;;;;;;;4.16;69.23;102283.30;1813299;77;21135;-56
2020/12/21 06:30:28;;;;;;;16.30;6.05;;;;;;;4.27;69.06;102282.61;1733396;79;23283;-56
2020/12/21 06:33:03;;;;;;;8.60;4.72;;;;;;;4.38;68.80;102282.80;1810552;78;21685;-56
2020/12/21 06:35:42;;;;;;;13.28;6.25;;;;;;;4.43;68.69;102288.76;1782335;79;21549;-55
2020/12/21 06:38:10;;;;;;;11.55;5.37;;;;;;;4.43;68.72;102280.94;1786580;79;21219;-55
2020/12/21 06:40:38;;;;;;;9.15;5.20;;;;;;;4.43;68.71;102283.55;1786253;79;21187;-56
2020/12/21 06:43:14;;;;;;;10.28;4.78;;;;;;;4.44;68.70;102282.20;1783090;79;23607;-56
2020/12/21 06:45:43;;;;;;;10.65;4.95;;;;;;;4.44;68.56;102280.91;1782453;78;21199;-56
2020/12/21 06:48:22;;;;;;;11.53;5.00;;;;;;;4.41;68.51;102283.58;1785609;78;21120;-56
2020/12/21 06:50:51;;;;;;;8.80;4.53;;;;;;;4.36;68.48;102279.38;1785289;79;21519;-56
2020/12/21 06:53:21;;;;;;;10.63;5.47;;;;;;;4.28;68.54;102284.30;1783374;79;21204;-56
2020/12/21 06:55:48;;;;;;;7.40;3.92;;;;;;;4.31;68.54;102298.18;1784676;78;22780;-61
2020/12/21 06:58:16;;;;;;;10.68;4.97;;;;;;;4.37;68.37;102290.20;1777899;79;21649;-57
2020/12/21 07:00:45;;;;;;;11.25;4.67;;;;;;;4.42;68.22;102296.16;1788921;79;21226;-58
2020/12/21 07:03:14;;;;;;;8.43;4.30;;;;;;;4.44;68.21;102291.80;1784955;78;21212;-56
2020/12/21 07:05:43;;;;;;;8.88;3.80;;;;;;;4.40;68.31;102297.50;1739672;79;21179;-56
2020/12/21 07:08:10;;;;;;;8.60;4.22;;;;;;;4.39;68.36;102289.28;1786485;78;21208;-57
2020/12/21 07:10:42;;;;;;;9.20;5.00;;;;;;;4.36;68.31;102293.72;1779060;79;21202;-56
2020/12/21 07:13:11;;;;;;;9.78;4.30;;;;;;;4.30;68.22;102293.84;1786183;78;21176;-57
2020/12/21 07:15:39;;;;;;;8.38;4.37;;;;;;;4.23;68.14;102299.64;1815390;77;21469;-57
2020/12/21 07:18:07;;;;;;;9.00;4.40;;;;;;;4.16;68.14;102297.63;1767677;79;21212;-57
2020/12/21 07:20:40;;;;;;;9.63;4.92;;;;;;;4.12;68.28;102293.81;1747454;78;21383;-58
2020/12/21 07:23:08;;;;;;;8.15;3.98;;;;;;;4.08;68.31;102294.33;1816717;77;21214;-57
2020/12/21 07:25:36;;;;;;;8.58;4.28;;;;;;;4.09;68.27;102299.97;1813529;77;21458;-57
2020/12/21 07:28:03;;;;;;;7.72;3.85;;;;;;;4.16;68.05;102292.87;1792302;78;21179;-56
2020/12/21 07:30:31;;;;;;;8.48;4.35;;;;;;;4.22;68.04;102295.31;1787839;78;21020;-57
2020/12/21 07:33:02;;;;;;;7.22;3.67;;;;;;;4.24;67.98;102289.65;1794070;78;21271;-57
2020/12/21 07:35:32;;;;;;;10.15;5.05;;;;;;;4.22;68.15;102296.62;1785294;78;21626;-58
2020/12/21 07:38:12;;;;;;;9.38;4.62;;;;;;;4.17;68.35;102293.26;1783584;79;21197;-57
2020/12/21 07:40:40;;;;;;;11.30;4.42;;;;;;;4.14;68.59;102288.15;1787315;78;21237;-57
2020/12/21 07:43:13;;;;;;;8.10;4.20;;;;;;;4.13;68.78;102292.48;1788526;79;21194;-56
2020/12/21 07:45:43;;;;;;;6.85;3.35;;;;;;;4.16;68.79;102292.41;1762073;78;22226;-55
2020/12/21 07:48:11;;;;;;;8.73;3.87;;;;;;;4.15;68.83;102289.84;1790438;78;21659;-57
2020/12/21 07:50:42;;;;;;;7.03;3.62;;;;;;;4.12;68.91;102286.88;1787520;78;21218;-57
2020/12/21 07:53:11;;;;;;;7.62;3.47;;;;;;;4.16;68.94;102288.96;1813093;77;21163;-57
2020/12/21 07:55:40;;;;;;;7.78;4.10;;;;;;;4.27;68.74;102289.12;1788549;78;22264;-57
2020/12/21 07:58:15;;;;;;;7.28;3.80;;;;;;;4.37;68.62;102288.47;1782087;78;21209;-56
2020/12/21 08:00:56;;;;;;;7.10;3.60;;;;;;;4.44;68.51;102292.64;1811041;77;21187;-57
2020/12/21 08:03:26;;;;;;;8.03;4.12;;;;;;;4.43;68.58;102286.16;1811943;77;21210;-61
2020/12/21 08:06:05;;;;;;;10.30;4.15;;;;;;;4.44;68.71;102287.87;1784106;78;21346;-57
2020/12/21 08:08:33;;;;;;;9.13;3.95;;;;;;;4.45;68.66;102284.36;1786194;78;21151;-56
2020/12/21 08:11:00;;;;;;;10.10;4.50;;;;;;;4.46;68.62;102277.81;1782972;78;21374;-56
2020/12/21 08:13:29;;;;;;;12.28;4.95;;;;;;;4.46;68.71;102272.59;1791905;79;21241;-56
2020/12/21 08:16:07;;;;;;;10.58;5.12;;;;;;;4.44;68.74;102278.30;1811905;77;21179;-56
2020/12/21 08:18:36;;;;;;;8.78;4.10;;;;;;;4.41;68.87;102272.31;1808852;78;21190;-56
2020/12/21 08:21:15;;;;;;;9.48;4.47;;;;;;;4.46;68.78;102284.78;1787991;78;21254;-56
2020/12/21 08:23:57;;;;;;;8.48;4.12;;;;;;;4.55;68.51;102281.09;1788632;78;21199;-56
2020/12/21 08:26:25;;;;;;;8.23;4.35;;;;;;;4.64;68.40;102282.19;1779194;79;21202;-56
2020/12/21 08:28:54;;;;;;;10.60;5.00;;;;;;;4.69;68.35;102285.95;1784998;78;21602;-57
2020/12/21 08:31:23;;;;;;;8.33;5.10;;;;;;;4.67;68.48;102286.45;1783629;78;21587;-58
2020/12/21 08:34:07;;;;;;;12.47;5.47;;;;;;;4.65;68.51;102288.63;1819338;77;21204;-57
2020/12/21 08:36:38;;;;;;;11.35;5.55;;;;;;;4.64;68.56;102292.16;1787547;78;21387;-56
2020/12/21 08:39:19;;;;;;;10.60;4.85;;;;;;;4.62;68.58;102290.47;1791839;78;21142;-56
2020/12/21 08:41:58;;;;;;;10.00;5.60;;;;;;;4.62;68.58;102295.68;1787369;79;22559;-57
2020/12/21 08:44:27;;;;;;;10.03;5.08;;;;;;;4.62;68.55;102288.73;1820095;77;22292;-57
2020/12/21 08:46:59;;;;;;;12.20;5.67;;;;;;;4.60;68.42;102290.50;1786165;79;21187;-57
2020/12/21 08:49:28;;;;;;;8.68;4.95;;;;;;;4.62;68.26;102282.64;1814238;78;21936;-57
2020/12/21 08:52:02;;;;;;;10.23;5.67;;;;;;;4.74;68.04;102294.52;1812393;77;22309;-57
2020/12/21 08:54:30;;;;;;;9.68;5.83;;;;;;;4.81;67.85;102294.80;1807358;77;21101;-57
2020/12/21 08:57:01;;;;;;;9.68;4.70;;;;;;;4.82;67.78;102287.36;1806438;77;21167;-56
2020/12/21 08:59:30;;;;;;;7.95;5.25;;;;;;;4.81;67.68;102287.82;1815808;77;21123;-57
2020/12/21 09:01:58;;;;;;;9.43;5.33;;;;;;;4.78;67.74;102290.96;1817007;77;21592;-56
2020/12/21 09:04:26;;;;;;;9.28;5.15;;;;;;;4.76;67.76;102286.23;1816702;77;21183;-57
2020/12/21 09:06:53;;;;;;;9.60;4.25;;;;;;;4.72;67.79;102289.34;1802338;78;21639;-57
2020/12/21 09:09:22;;;;;;;10.10;5.55;;;;;;;4.67;67.88;102282.54;1785716;78;21688;-56
2020/12/21 09:11:54;;;;;;;10.43;4.60;;;;;;;4.62;68.02;102283.52;1790140;78;21221;-57
2020/12/21 09:14:25;;;;;;;8.45;4.37;;;;;;;4.57;68.21;102281.48;1786028;79;21364;-57
2020/12/21 09:16:53;;;;;;;8.60;4.10;;;;;;;4.52;68.28;102277.25;1773517;78;21575;-57
2020/12/21 09:19:20;;;;;;;7.62;3.92;;;;;;;4.53;68.17;102284.19;1785540;78;21183;-57
2020/12/21 09:21:48;;;;;;;10.50;3.83;;;;;;;4.61;68.03;102280.95;1794242;79;21194;-62
2020/12/21 09:24:16;;;;;;;7.53;4.17;;;;;;;4.67;67.87;102278.63;1790733;79;21658;-58
2020/12/21 09:26:43;;;;;;;10.95;5.00;;;;;;;4.68;67.89;102273.38;1795732;78;21640;-57
2020/12/21 09:29:10;;;;;;;8.25;3.85;;;;;;;4.67;67.98;102275.56;1791779;78;21731;-56
2020/12/21 09:31:39;;;;;;;7.30;3.87;;;;;;;4.65;67.99;102276.91;1820261;77;21100;-57
2020/12/21 09:34:07;;;;;;;9.00;4.97;;;;;;;4.61;68.07;102275.73;1823249;77;22274;-59
2020/12/21 09:36:44;;;;;;;7.37;3.33;;;;;;;4.56;68.07;102266.72;1806969;78;21154;-58
2020/12/21 09:39:12;;;;;;;8.65;4.55;;;;;;;4.53;68.19;102269.39;1791924;79;22257;-57
2020/12/21 09:41:40;;;;;;;8.25;4.85;;;;;;;4.50;68.10;102265.55;1791280;78;21190;-58
2020/12/21 09:44:07;;;;;;;8.48;4.03;;;;;;;4.46;68.12;102263.47;1794963;78;21410;-57
2020/12/21 09:46:36;;;;;;;7.53;3.62;;;;;;;4.43;68.20;102262.23;1782136;78;21175;-57
2020/12/21 09:49:03;;;;;;;6.53;2.90;;;;;;;4.46;68.09;102261.32;1802426;78;21159;-56
2020/12/21 09:51:31;;;;;;;6.30;3.42;;;;;;;4.50;67.83;102259.03;1786528;79;21438;-58
2020/12/21 09:53:59;;;;;;;10.70;3.50;;;;;;;4.52;67.79;102252.48;1802411;78;21123;-56
2020/12/21 09:56:26;;;;;;;7.05;2.80;;;;;;;4.55;67.81;102251.95;1811885;77;21195;-56
2020/12/21 09:58:54;;;;;;;6.75;3.30;;;;;;;4.58;67.84;102248.43;1813269;77;21128;-55
2020/12/21 10:01:30;;;;;;;6.58;3.42;;;;;;;4.55;67.81;102251.95;1808702;77;21625;-57
2020/12/21 10:04:00;;;;;;;7.50;3.50;;;;;;;4.47;67.91;102247.37;1816139;77;22733;-57
2020/12/21 10:06:31;;;;;;;6.80;3.05;;;;;;;4.42;68.02;102244.03;1819881;77;21131;-57
2020/12/21 10:08:58;;;;;;;7.28;3.45;;;;;;;4.39;68.08;102249.34;1793021;79;21171;-57
2020/12/21 10:11:27;;;;;;;9.43;4.05;;;;;;;4.35;68.16;102244.62;1817694;78;21120;-58
2020/12/21 10:13:55;;;;;;;8.75;4.28;;;;;;;4.32;68.33;102247.75;1788373;79;21782;-57
2020/12/21 10:16:22;;;;;;;9.75;3.50;;;;;;;4.27;68.44;102246.58;1784519;78;21354;-60
2020/12/21 10:18:50;;;;;;;6.47;3.27;;;;;;;4.32;68.38;102247.33;1786754;79;21140;-56
2020/12/21 10:21:17;;;;;;;7.70;3.50;;;;;;;4.44;68.08;102246.17;1784113;78;21193;-58
2020/12/21 10:23:45;;;;;;;7.03;3.35;;;;;;;4.52;67.82;102252.48;1782049;79;21183;-57
2020/12/21 10:26:12;;;;;;;6.37;3.33;;;;;;;4.51;67.66;102245.12;1811987;78;21638;-56
2020/12/21 10:28:40;;;;;;;7.50;3.33;;;;;;;4.44;67.72;102245.72;1807254;78;22279;-57
2020/12/21 10:31:07;;;;;;;10.93;4.35;;;;;;;4.42;67.85;102248.81;1804862;77;21188;-61
2020/12/21 10:33:34;;;;;;;7.97;4.22;;;;;;;4.38;68.07;102239.80;1804502;77;21187;-58
2020/12/21 10:36:02;;;;;;;7.58;4.47;;;;;;;4.37;68.18;102252.41;1789514;78;22044;-57
2020/12/21 10:38:31;;;;;;;7.92;4.00;;;;;;;4.34;68.34;102247.26;1787493;78;21175;-57
2020/12/21 10:40:59;;;;;;;9.00;4.58;;;;;;;4.30;68.24;102245.18;1811427;77;22162;-57
2020/12/21 10:43:27;;;;;;;11.48;4.78;;;;;;;4.25;68.46;102245.31;1781274;78;21464;-57
2020/12/21 10:45:55;;;;;;;9.15;5.50;;;;;;;4.24;68.48;102237.53;1781217;78;21149;-57
2020/12/21 10:48:22;;;;;;;7.53;4.17;;;;;;;4.33;68.30;102235.14;1787864;78;21180;-57
2020/12/21 10:50:51;;;;;;;10.32;6.30;;;;;;;4.37;68.23;102236.34;1803859;78;21592;-56
2020/12/21 10:53:18;;;;;;;15.20;8.88;;;;;;;4.38;68.36;102238.49;1816370;77;22169;-57
2020/12/21 10:55:46;;;;;;;16.70;8.00;;;;;;;4.36;68.46;102238.53;1777348;79;21646;-57
2020/12/21 10:58:13;;;;;;;13.32;7.37;;;;;;;4.34;68.49;102232.50;1821006;77;21402;-57
2020/12/21 11:00:41;;;;;;;12.07;6.40;;;;;;;4.35;68.51;102235.95;1782662;78;21175;-56
2020/12/21 11:03:09;;;;;;;11.38;6.00;;;;;;;4.36;68.54;102239.83;1784864;78;21180;-58
2020/12/21 11:05:36;;;;;;;12.18;6.67;;;;;;;4.33;68.48;102232.53;1811331;78;21205;-57
2020/12/21 11:08:07;;;;;;;12.23;5.30;;;;;;;4.31;68.47;102236.94;1777960;78;21175;-56
2020/12/21 11:10:35;;;;;;;10.23;5.80;;;;;;;4.27;68.61;102230.95;1805975;78;21196;-57
2020/12/21 11:13:03;;;;;;;11.70;5.22;;;;;;;4.23;68.64;102235.80;1811033;77;21740;-57
2020/12/21 11:15:31;;;;;;;12.60;5.97;;;;;;;4.24;68.51;102231.02;1810541;77;22506;-57
2020/12/21 11:17:59;;;;;;;12.03;5.95;;;;;;;4.34;67.99;102239.02;1791516;78;21234;-56
2020/12/21 11:20:28;;;;;;;12.40;6.65;;;;;;;4.40;67.76;102236.24;1786603;78;21919;-57
2020/12/21 11:22:56;;;;;;;13.32;6.05;;;;;;;4.44;67.64;102239.20;1770034;80;21163;-57
2020/12/21 11:25:23;;;;;;;13.08;6.87;;;;;;;4.42;67.60;102233.59;1794334;78;21745;-55
2020/12/21 11:28:56;;;;;;;11.65;5.33;;;;;;;4.41;67.79;102234.05;1835851;76;22687;-56
2020/12/21 11:31:25;;;;;;;14.83;6.72;;;;;;;4.36;67.64;102235.92;1794137;79;21033;-56
2020/12/21 11:33:53;;;;;;;12.18;6.85;;;;;;;4.32;67.56;102234.30;1799323;77;21196;-56